UAE451 YSSY-NZAA
Flight info
| Callsign | UAE451 |
|---|---|
| Flight time | 2h 34m |
| Altitude | 39000 |
| Route | EVONN L521 LUNBI |
| Aircraft | A388/J-SADE2E3FGHIJ3J4J5M1RWXY/LB1D1 |
Departure
| Time | 2026-05-04 15:32 |
|---|---|
| Airport | Sydney Kingsford Smith International Airport (YSSY) |
Arrival
| Time | 2026-05-04 18:06 |
|---|---|
| Airport | Auckland International Airport (NZAA) |
| Time | Latitude | Longitude | Altitude | Speed | Heading |
|---|---|---|---|---|---|
| 2026-05-04 15:26 | -33.93399 | 151.16788 | 35 ft | 0 kts | 258° |
| 2026-05-04 15:26 | -33.93396 | 151.16806 | 34 ft | 5 kts | 258° |
| 2026-05-04 15:26 | -33.93386 | 151.16876 | 33 ft | 3 kts | 276° |
| 2026-05-04 15:27 | -33.93397 | 151.16893 | 31 ft | 3 kts | 326° |
| 2026-05-04 15:27 | -33.93406 | 151.16896 | 32 ft | 0 kts | 342° |
| 2026-05-04 15:29 | -33.93387 | 151.16890 | 34 ft | 6 kts | 352° |
| 2026-05-04 15:30 | -33.93007 | 151.16908 | 35 ft | 7 kts | 37° |
| 2026-05-04 15:30 | -33.93003 | 151.17177 | 35 ft | 9 kts | 166° |
| 2026-05-04 15:31 | -33.93335 | 151.17261 | 34 ft | 78 kts | 168° |
| 2026-05-04 15:31 | -33.94110 | 151.17465 | 32 ft | 143 kts | 168° |
| 2026-05-04 15:32 | -33.97447 | 151.18442 | 1290 ft | 169 kts | 168° |
| 2026-05-04 15:32 | -33.99810 | 151.19245 | 1965 ft | 192 kts | 167° |
| 2026-05-04 15:33 | -34.01824 | 151.21789 | 2513 ft | 245 kts | 111° |
| 2026-05-04 15:34 | -34.03195 | 151.28388 | 4511 ft | 286 kts | 103° |
| 2026-05-04 15:34 | -34.03674 | 151.30716 | 5310 ft | 292 kts | 103° |
| 2026-05-04 15:34 | -34.04728 | 151.35557 | 6996 ft | 302 kts | 103° |
| 2026-05-04 15:35 | -34.05828 | 151.40511 | 8686 ft | 310 kts | 102° |
| 2026-05-04 15:35 | -34.06390 | 151.43044 | 9543 ft | 314 kts | 101° |
| 2026-05-04 15:35 | -34.06957 | 151.45609 | 10340 ft | 320 kts | 101° |
| 2026-05-04 15:36 | -34.08173 | 151.51157 | 10830 ft | 364 kts | 101° |
| 2026-05-04 15:36 | -34.08833 | 151.54153 | 11356 ft | 373 kts | 101° |
| 2026-05-04 15:36 | -34.09506 | 151.57194 | 12020 ft | 378 kts | 101° |
| 2026-05-04 15:37 | -34.10189 | 151.60282 | 12693 ft | 383 kts | 101° |
| 2026-05-04 15:37 | -34.10877 | 151.63407 | 13352 ft | 388 kts | 101° |
| 2026-05-04 15:37 | -34.11572 | 151.66574 | 13987 ft | 393 kts | 101° |
| 2026-05-04 15:37 | -34.12275 | 151.69785 | 14626 ft | 396 kts | 101° |
| 2026-05-04 15:38 | -34.12980 | 151.73005 | 15291 ft | 399 kts | 101° |
| 2026-05-04 15:38 | -34.13691 | 151.76257 | 15926 ft | 402 kts | 101° |
| 2026-05-04 15:38 | -34.14407 | 151.79542 | 16530 ft | 406 kts | 101° |
| 2026-05-04 15:38 | -34.15129 | 151.82858 | 17144 ft | 409 kts | 101° |
| 2026-05-04 15:39 | -34.15857 | 151.86204 | 17744 ft | 413 kts | 101° |
| 2026-05-04 15:39 | -34.16578 | 151.89527 | 18349 ft | 416 kts | 100° |
| 2026-05-04 15:39 | -34.18056 | 151.96349 | 19259 ft | 425 kts | 101° |
| 2026-05-04 15:40 | -34.18807 | 151.99821 | 19761 ft | 428 kts | 101° |
| 2026-05-04 15:40 | -34.19573 | 152.03306 | 20277 ft | 432 kts | 103° |
| 2026-05-04 15:40 | -34.20562 | 152.06747 | 20757 ft | 436 kts | 106° |
| 2026-05-04 15:40 | -34.21583 | 152.10212 | 21249 ft | 439 kts | 106° |
| 2026-05-04 15:41 | -34.22604 | 152.13701 | 21737 ft | 442 kts | 106° |
| 2026-05-04 15:41 | -34.23629 | 152.17218 | 22229 ft | 445 kts | 106° |
| 2026-05-04 15:41 | -34.24662 | 152.20768 | 22708 ft | 448 kts | 106° |
| 2026-05-04 15:41 | -34.25699 | 152.24334 | 23188 ft | 451 kts | 106° |
| 2026-05-04 15:42 | -34.26741 | 152.27927 | 23648 ft | 454 kts | 106° |
| 2026-05-04 15:42 | -34.27789 | 152.31546 | 24041 ft | 457 kts | 107° |
| 2026-05-04 15:42 | -34.28843 | 152.35190 | 24431 ft | 460 kts | 107° |
| 2026-05-04 15:42 | -34.29903 | 152.38859 | 24837 ft | 464 kts | 107° |
| 2026-05-04 15:43 | -34.30968 | 152.42554 | 25230 ft | 467 kts | 107° |
| 2026-05-04 15:43 | -34.32041 | 152.46277 | 25624 ft | 470 kts | 107° |
| 2026-05-04 15:43 | -34.33105 | 152.49976 | 26029 ft | 473 kts | 107° |
| 2026-05-04 15:43 | -34.34195 | 152.53766 | 26481 ft | 476 kts | 106° |
| 2026-05-04 15:44 | -34.35278 | 152.57538 | 27085 ft | 476 kts | 106° |
| 2026-05-04 15:44 | -34.36370 | 152.61351 | 27478 ft | 481 kts | 106° |
| 2026-05-04 15:44 | -34.37468 | 152.65189 | 27937 ft | 485 kts | 106° |
| 2026-05-04 15:44 | -34.38577 | 152.69072 | 28397 ft | 489 kts | 107° |
| 2026-05-04 15:45 | -34.39676 | 152.72924 | 28854 ft | 492 kts | 107° |
| 2026-05-04 15:45 | -34.40799 | 152.76861 | 29328 ft | 496 kts | 107° |
| 2026-05-04 15:45 | -34.41934 | 152.80850 | 29802 ft | 500 kts | 107° |
| 2026-05-04 15:45 | -34.43072 | 152.84856 | 30232 ft | 504 kts | 107° |
| 2026-05-04 15:46 | -34.44213 | 152.88873 | 30665 ft | 507 kts | 107° |
| 2026-05-04 15:46 | -34.45364 | 152.92933 | 31047 ft | 511 kts | 107° |
| 2026-05-04 15:46 | -34.46522 | 152.97026 | 31444 ft | 515 kts | 107° |
| 2026-05-04 15:46 | -34.47685 | 153.01143 | 31844 ft | 519 kts | 107° |
| 2026-05-04 15:47 | -34.48861 | 153.05309 | 32216 ft | 523 kts | 107° |
| 2026-05-04 15:47 | -34.50040 | 153.09493 | 32593 ft | 527 kts | 107° |
| 2026-05-04 15:47 | -34.51212 | 153.13660 | 32938 ft | 531 kts | 107° |
| 2026-05-04 15:47 | -34.52401 | 153.17889 | 33598 ft | 528 kts | 107° |
| 2026-05-04 15:48 | -34.53602 | 153.22172 | 33956 ft | 533 kts | 107° |
| 2026-05-04 15:48 | -34.54783 | 153.26388 | 34276 ft | 537 kts | 107° |
| 2026-05-04 15:48 | -34.57201 | 153.35042 | 34885 ft | 545 kts | 107° |
| 2026-05-04 15:49 | -34.58418 | 153.39410 | 35277 ft | 547 kts | 108° |
| 2026-05-04 15:49 | -34.59639 | 153.43797 | 35669 ft | 549 kts | 108° |
| 2026-05-04 15:49 | -34.60856 | 153.48173 | 36164 ft | 548 kts | 108° |
| 2026-05-04 15:49 | -34.62074 | 153.52563 | 36537 ft | 550 kts | 108° |
| 2026-05-04 15:50 | -34.63296 | 153.56977 | 36912 ft | 552 kts | 108° |
| 2026-05-04 15:50 | -34.64523 | 153.61412 | 37291 ft | 553 kts | 108° |
| 2026-05-04 15:50 | -34.65746 | 153.65841 | 37670 ft | 555 kts | 108° |
| 2026-05-04 15:50 | -34.66974 | 153.70294 | 38045 ft | 556 kts | 108° |
| 2026-05-04 15:51 | -34.68189 | 153.74710 | 38422 ft | 558 kts | 108° |
| 2026-05-04 15:51 | -34.69418 | 153.79185 | 38781 ft | 559 kts | 108° |
| 2026-05-04 15:51 | -34.70651 | 153.83675 | 39029 ft | 562 kts | 108° |
| 2026-05-04 15:51 | -34.71893 | 153.88213 | 39028 ft | 564 kts | 108° |
| 2026-05-04 15:52 | -34.74352 | 153.97214 | 39030 ft | 561 kts | 108° |
| 2026-05-04 15:52 | -34.76810 | 154.06239 | 39044 ft | 562 kts | 108° |
| 2026-05-04 15:53 | -34.79255 | 154.15249 | 39034 ft | 564 kts | 108° |
| 2026-05-04 15:53 | -34.81709 | 154.24322 | 39040 ft | 564 kts | 108° |
| 2026-05-04 15:54 | -34.84153 | 154.33385 | 39039 ft | 564 kts | 108° |
| 2026-05-04 15:54 | -34.86594 | 154.42471 | 39013 ft | 565 kts | 109° |
| 2026-05-04 15:55 | -34.89044 | 154.51618 | 39044 ft | 573 kts | 108° |
| 2026-05-04 15:55 | -34.91541 | 154.60974 | 39045 ft | 581 kts | 108° |
| 2026-05-04 15:56 | -34.94026 | 154.70320 | 39048 ft | 582 kts | 108° |
| 2026-05-04 15:56 | -34.96516 | 154.79713 | 39053 ft | 583 kts | 108° |
| 2026-05-04 15:57 | -34.98987 | 154.89069 | 39053 ft | 583 kts | 108° |
| 2026-05-04 15:57 | -35.01483 | 154.98540 | 39059 ft | 583 kts | 108° |
| 2026-05-04 15:58 | -35.03930 | 155.07892 | 39053 ft | 583 kts | 108° |
| 2026-05-04 15:58 | -35.06390 | 155.17329 | 39057 ft | 582 kts | 108° |
| 2026-05-04 15:59 | -35.08433 | 155.25166 | 39055 ft | 582 kts | 108° |
| 2026-05-04 15:59 | -35.10885 | 155.34609 | 39055 ft | 582 kts | 108° |
| 2026-05-04 16:00 | -35.13323 | 155.44040 | 39058 ft | 582 kts | 108° |
| 2026-05-04 16:00 | -35.15757 | 155.53490 | 39062 ft | 582 kts | 108° |
| 2026-05-04 16:01 | -35.18187 | 155.62958 | 39055 ft | 582 kts | 108° |
| 2026-05-04 16:01 | -35.20585 | 155.72331 | 39072 ft | 581 kts | 108° |
| 2026-05-04 16:02 | -35.22986 | 155.81753 | 39060 ft | 580 kts | 108° |
| 2026-05-04 16:03 | -35.26567 | 155.95868 | 39070 ft | 578 kts | 108° |
| 2026-05-04 16:03 | -35.28946 | 156.05291 | 39077 ft | 576 kts | 108° |
| 2026-05-04 16:04 | -35.31291 | 156.14607 | 39072 ft | 575 kts | 108° |
| 2026-05-04 16:04 | -35.34811 | 156.28660 | 39088 ft | 573 kts | 108° |
| 2026-05-04 16:05 | -35.37137 | 156.37984 | 39092 ft | 572 kts | 108° |
| 2026-05-04 16:06 | -35.40606 | 156.51963 | 39090 ft | 570 kts | 107° |
| 2026-05-04 16:07 | -35.45174 | 156.70490 | 39100 ft | 567 kts | 107° |
| 2026-05-04 16:08 | -35.49707 | 156.89006 | 39095 ft | 565 kts | 107° |
| 2026-05-04 16:09 | -35.55301 | 157.12053 | 39108 ft | 563 kts | 107° |
| 2026-05-04 16:10 | -35.59728 | 157.30439 | 39116 ft | 562 kts | 107° |
| 2026-05-04 16:11 | -35.64136 | 157.48885 | 39118 ft | 562 kts | 107° |
| 2026-05-04 16:12 | -35.70689 | 157.76568 | 39127 ft | 561 kts | 107° |
| 2026-05-04 16:13 | -35.75003 | 157.94966 | 39151 ft | 560 kts | 107° |
| 2026-05-04 16:14 | -35.78973 | 158.13465 | 39146 ft | 558 kts | 102° |
| 2026-05-04 16:16 | -35.82985 | 158.36761 | 39136 ft | 557 kts | 102° |
| 2026-05-04 16:17 | -35.86949 | 158.60130 | 39147 ft | 557 kts | 102° |
| 2026-05-04 16:18 | -35.90083 | 158.78847 | 39164 ft | 558 kts | 102° |
| 2026-05-04 16:19 | -35.93944 | 159.02161 | 39153 ft | 552 kts | 102° |
| 2026-05-04 16:20 | -35.97692 | 159.25084 | 39155 ft | 548 kts | 102° |
| 2026-05-04 16:22 | -36.01043 | 159.45824 | 39174 ft | 548 kts | 102° |
| 2026-05-04 16:23 | -36.05440 | 159.73413 | 39158 ft | 541 kts | 102° |
| 2026-05-04 16:25 | -36.09722 | 160.00689 | 39198 ft | 544 kts | 102° |
| 2026-05-04 16:26 | -36.12563 | 160.19032 | 39500 ft | 545 kts | 102° |
| 2026-05-04 16:26 | -36.14645 | 160.32600 | 41069 ft | 534 kts | 101° |
| 2026-05-04 16:27 | -36.16036 | 160.41717 | 41212 ft | 546 kts | 101° |
| 2026-05-04 16:28 | -36.18110 | 160.55414 | 41213 ft | 540 kts | 101° |
| 2026-05-04 16:29 | -36.22887 | 160.87376 | 41223 ft | 540 kts | 101° |
| 2026-05-04 16:31 | -36.26252 | 161.10272 | 41232 ft | 540 kts | 101° |
| 2026-05-04 16:32 | -36.30221 | 161.37689 | 41235 ft | 539 kts | 101° |
| 2026-05-04 16:33 | -36.32835 | 161.55999 | 41245 ft | 539 kts | 101° |
| 2026-05-04 16:34 | -36.34774 | 161.69725 | 41248 ft | 539 kts | 101° |
| 2026-05-04 16:35 | -36.38600 | 161.97145 | 41264 ft | 538 kts | 101° |
| 2026-05-04 16:36 | -36.40492 | 162.10888 | 41259 ft | 538 kts | 101° |
| 2026-05-04 16:37 | -36.42369 | 162.24644 | 41270 ft | 538 kts | 101° |
| 2026-05-04 16:38 | -36.44836 | 162.42908 | 41292 ft | 538 kts | 101° |
| 2026-05-04 16:39 | -36.47891 | 162.65836 | 41286 ft | 537 kts | 101° |
| 2026-05-04 16:40 | -36.50293 | 162.84098 | 41286 ft | 536 kts | 101° |
| 2026-05-04 16:41 | -36.53256 | 163.06983 | 41302 ft | 535 kts | 100° |
| 2026-05-04 16:43 | -36.56146 | 163.29781 | 41301 ft | 534 kts | 100° |
| 2026-05-04 16:43 | -36.57880 | 163.43474 | 41310 ft | 533 kts | 100° |
| 2026-05-04 16:45 | -36.61270 | 163.70793 | 41324 ft | 532 kts | 100° |
| 2026-05-04 16:46 | -36.64042 | 163.93544 | 41322 ft | 531 kts | 100° |
| 2026-05-04 16:47 | -36.66219 | 164.11683 | 41328 ft | 531 kts | 100° |
| 2026-05-04 16:48 | -36.68200 | 164.28404 | 41333 ft | 530 kts | 100° |
| 2026-05-04 16:49 | -36.70321 | 164.46532 | 41332 ft | 530 kts | 100° |
| 2026-05-04 16:50 | -36.72419 | 164.64716 | 41342 ft | 530 kts | 100° |
| 2026-05-04 16:51 | -36.73975 | 164.78368 | 41348 ft | 530 kts | 100° |
| 2026-05-04 16:52 | -36.76025 | 164.96568 | 41346 ft | 530 kts | 99° |
| 2026-05-04 16:53 | -36.77538 | 165.10167 | 41349 ft | 530 kts | 99° |
| 2026-05-04 16:54 | -36.79536 | 165.28356 | 41352 ft | 529 kts | 99° |
| 2026-05-04 16:55 | -36.82489 | 165.55724 | 41356 ft | 530 kts | 99° |
| 2026-05-04 16:56 | -36.84898 | 165.78518 | 41374 ft | 531 kts | 99° |
| 2026-05-04 16:57 | -36.86325 | 165.92223 | 41371 ft | 530 kts | 99° |
| 2026-05-04 16:58 | -36.88199 | 166.10458 | 41372 ft | 530 kts | 99° |
| 2026-05-04 17:00 | -36.90955 | 166.37817 | 41381 ft | 527 kts | 99° |
| 2026-05-04 17:01 | -36.93193 | 166.60505 | 41399 ft | 525 kts | 98° |
| 2026-05-04 17:02 | -36.94949 | 166.78638 | 41386 ft | 524 kts | 98° |
| 2026-05-04 17:03 | -36.96238 | 166.92140 | 41394 ft | 522 kts | 98° |
| 2026-05-04 17:03 | -36.97513 | 167.05652 | 41395 ft | 521 kts | 98° |
| 2026-05-04 17:04 | -36.99183 | 167.23614 | 41407 ft | 521 kts | 97° |
| 2026-05-04 17:05 | -37.00827 | 167.41606 | 41414 ft | 519 kts | 97° |
| 2026-05-04 17:06 | -37.02037 | 167.55033 | 41410 ft | 519 kts | 97° |
| 2026-05-04 17:07 | -37.03106 | 167.67054 | 41418 ft | 518 kts | 97° |
| 2026-05-04 17:07 | -37.04021 | 167.77451 | 41420 ft | 518 kts | 97° |
| 2026-05-04 17:08 | -37.05190 | 167.90892 | 41414 ft | 517 kts | 97° |
| 2026-05-04 17:09 | -37.05961 | 167.99853 | 41430 ft | 516 kts | 97° |
| 2026-05-04 17:09 | -37.06723 | 168.08801 | 41425 ft | 516 kts | 97° |
| 2026-05-04 17:10 | -37.08591 | 168.31063 | 41421 ft | 515 kts | 97° |
| 2026-05-04 17:11 | -37.09329 | 168.40000 | 41429 ft | 515 kts | 97° |
| 2026-05-04 17:12 | -37.10417 | 168.53326 | 41417 ft | 514 kts | 97° |
| 2026-05-04 17:13 | -37.12203 | 168.75616 | 41442 ft | 514 kts | 96° |
| 2026-05-04 17:14 | -37.13596 | 168.93398 | 41436 ft | 513 kts | 96° |
| 2026-05-04 17:15 | -37.14626 | 169.06768 | 41434 ft | 513 kts | 96° |
| 2026-05-04 17:16 | -37.15972 | 169.24539 | 41434 ft | 513 kts | 96° |
| 2026-05-04 17:17 | -37.17294 | 169.42367 | 41445 ft | 513 kts | 96° |
| 2026-05-04 17:18 | -37.18587 | 169.60155 | 41434 ft | 513 kts | 96° |
| 2026-05-04 17:19 | -37.19855 | 169.77980 | 41442 ft | 513 kts | 96° |
| 2026-05-04 17:20 | -37.21097 | 169.95826 | 41450 ft | 513 kts | 96° |
| 2026-05-04 17:20 | -37.22013 | 170.09235 | 41452 ft | 514 kts | 96° |
| 2026-05-04 17:21 | -37.23206 | 170.27054 | 41458 ft | 513 kts | 95° |
| 2026-05-04 17:22 | -37.23795 | 170.35978 | 41457 ft | 513 kts | 95° |
| 2026-05-04 17:23 | -37.24963 | 170.53850 | 41467 ft | 513 kts | 95° |
| 2026-05-04 17:24 | -37.25618 | 170.67274 | 41462 ft | 514 kts | 91° |
| 2026-05-04 17:25 | -37.25145 | 170.85150 | 41463 ft | 514 kts | 89° |
| 2026-05-04 17:26 | -37.24639 | 171.03111 | 41467 ft | 514 kts | 88° |
| 2026-05-04 17:27 | -37.23948 | 171.25481 | 41467 ft | 514 kts | 88° |
| 2026-05-04 17:28 | -37.23366 | 171.43363 | 40978 ft | 506 kts | 88° |
| 2026-05-04 17:29 | -37.22923 | 171.56437 | 39573 ft | 494 kts | 88° |
| 2026-05-04 17:29 | -37.22475 | 171.69290 | 38042 ft | 491 kts | 88° |
| 2026-05-04 17:30 | -37.22010 | 171.82181 | 36498 ft | 496 kts | 88° |
| 2026-05-04 17:31 | -37.21691 | 171.90822 | 35514 ft | 495 kts | 88° |
| 2026-05-04 17:31 | -37.21203 | 172.03711 | 34055 ft | 489 kts | 88° |
| 2026-05-04 17:32 | -37.20877 | 172.12159 | 33004 ft | 481 kts | 87° |
| 2026-05-04 17:33 | -37.20385 | 172.24553 | 31497 ft | 469 kts | 87° |
| 2026-05-04 17:33 | -37.20221 | 172.28626 | 31030 ft | 465 kts | 86° |
| 2026-05-04 17:34 | -37.19730 | 172.40605 | 29433 ft | 452 kts | 86° |
| 2026-05-04 17:34 | -37.19567 | 172.44527 | 28886 ft | 449 kts | 85° |
| 2026-05-04 17:35 | -37.19074 | 172.56147 | 27317 ft | 439 kts | 85° |
| 2026-05-04 17:35 | -37.18803 | 172.62461 | 26485 ft | 432 kts | 85° |
| 2026-05-04 17:35 | -37.18640 | 172.66209 | 25996 ft | 428 kts | 85° |
| 2026-05-04 17:36 | -37.18416 | 172.71259 | 25361 ft | 451 kts | 85° |
| 2026-05-04 17:36 | -37.18295 | 172.73940 | 25043 ft | 458 kts | 85° |
| 2026-05-04 17:36 | -37.18118 | 172.77930 | 24575 ft | 457 kts | 85° |
| 2026-05-04 17:36 | -37.17944 | 172.81830 | 24125 ft | 452 kts | 85° |
| 2026-05-04 17:37 | -37.17768 | 172.85791 | 23590 ft | 447 kts | 85° |
| 2026-05-04 17:37 | -37.17594 | 172.89610 | 23053 ft | 442 kts | 85° |
| 2026-05-04 17:37 | -37.17419 | 172.93440 | 22514 ft | 437 kts | 85° |
| 2026-05-04 17:37 | -37.17245 | 172.97221 | 22007 ft | 432 kts | 85° |
| 2026-05-04 17:38 | -37.17070 | 173.00976 | 21490 ft | 429 kts | 85° |
| 2026-05-04 17:38 | -37.16897 | 173.04687 | 20987 ft | 424 kts | 85° |
| 2026-05-04 17:38 | -37.16723 | 173.08366 | 20493 ft | 421 kts | 85° |
| 2026-05-04 17:38 | -37.16550 | 173.12020 | 20004 ft | 416 kts | 85° |
| 2026-05-04 17:39 | -37.16206 | 173.19201 | 18871 ft | 408 kts | 85° |
| 2026-05-04 17:39 | -37.16036 | 173.22727 | 18214 ft | 400 kts | 85° |
| 2026-05-04 17:39 | -37.15870 | 173.26143 | 17566 ft | 394 kts | 85° |
| 2026-05-04 17:40 | -37.15705 | 173.29544 | 16924 ft | 388 kts | 85° |
| 2026-05-04 17:40 | -37.15539 | 173.32904 | 16299 ft | 383 kts | 85° |
| 2026-05-04 17:40 | -37.15376 | 173.36213 | 15695 ft | 378 kts | 84° |
| 2026-05-04 17:40 | -37.15215 | 173.39471 | 15184 ft | 370 kts | 84° |
| 2026-05-04 17:41 | -37.15057 | 173.42664 | 14704 ft | 363 kts | 84° |
| 2026-05-04 17:41 | -37.14791 | 173.45786 | 14226 ft | 356 kts | 78° |
| 2026-05-04 17:41 | -37.14293 | 173.48750 | 13713 ft | 349 kts | 76° |
| 2026-05-04 17:41 | -37.13796 | 173.51710 | 13194 ft | 344 kts | 76° |
| 2026-05-04 17:42 | -37.13320 | 173.54627 | 12675 ft | 339 kts | 77° |
| 2026-05-04 17:42 | -37.12854 | 173.57502 | 12200 ft | 335 kts | 76° |
| 2026-05-04 17:42 | -37.12392 | 173.60334 | 11929 ft | 331 kts | 76° |
| 2026-05-04 17:42 | -37.11918 | 173.63213 | 11683 ft | 343 kts | 76° |
| 2026-05-04 17:43 | -37.11432 | 173.66151 | 11438 ft | 344 kts | 76° |
| 2026-05-04 17:43 | -37.10948 | 173.69082 | 11197 ft | 342 kts | 76° |
| 2026-05-04 17:43 | -37.10467 | 173.71991 | 10955 ft | 341 kts | 76° |
| 2026-05-04 17:43 | -37.09987 | 173.74893 | 10713 ft | 339 kts | 76° |
| 2026-05-04 17:44 | -37.09507 | 173.77781 | 10483 ft | 337 kts | 76° |
| 2026-05-04 17:44 | -37.09030 | 173.80649 | 10227 ft | 334 kts | 76° |
| 2026-05-04 17:44 | -37.08566 | 173.83438 | 9973 ft | 321 kts | 76° |
| 2026-05-04 17:44 | -37.08119 | 173.86124 | 9713 ft | 309 kts | 76° |
| 2026-05-04 17:45 | -37.07687 | 173.88713 | 9468 ft | 299 kts | 76° |
| 2026-05-04 17:45 | -37.07269 | 173.91217 | 9258 ft | 288 kts | 76° |
| 2026-05-04 17:45 | -37.06862 | 173.93637 | 9055 ft | 280 kts | 76° |
| 2026-05-04 17:45 | -37.06464 | 173.96006 | 8846 ft | 276 kts | 76° |
| 2026-05-04 17:46 | -37.06066 | 173.98362 | 8652 ft | 275 kts | 76° |
| 2026-05-04 17:46 | -37.05677 | 174.00673 | 8457 ft | 274 kts | 76° |
| 2026-05-04 17:46 | -37.05285 | 174.02995 | 8335 ft | 272 kts | 76° |
| 2026-05-04 17:46 | -37.04892 | 174.05322 | 8208 ft | 273 kts | 76° |
| 2026-05-04 17:47 | -37.04500 | 174.07642 | 8088 ft | 272 kts | 76° |
| 2026-05-04 17:47 | -37.04109 | 174.09960 | 7990 ft | 272 kts | 76° |
| 2026-05-04 17:47 | -37.03717 | 174.12272 | 7989 ft | 271 kts | 76° |
| 2026-05-04 17:47 | -37.03325 | 174.14587 | 7960 ft | 272 kts | 76° |
| 2026-05-04 17:48 | -37.02930 | 174.16912 | 7794 ft | 272 kts | 76° |
| 2026-05-04 17:48 | -37.02537 | 174.19225 | 7653 ft | 271 kts | 76° |
| 2026-05-04 17:48 | -37.02145 | 174.21525 | 7513 ft | 270 kts | 76° |
| 2026-05-04 17:48 | -37.01754 | 174.23821 | 7374 ft | 269 kts | 76° |
| 2026-05-04 17:49 | -37.01369 | 174.26078 | 7226 ft | 268 kts | 76° |
| 2026-05-04 17:49 | -37.00980 | 174.28355 | 7080 ft | 268 kts | 76° |
| 2026-05-04 17:49 | -37.00590 | 174.30637 | 6938 ft | 268 kts | 76° |
| 2026-05-04 17:49 | -37.00201 | 174.32907 | 6787 ft | 265 kts | 76° |
| 2026-05-04 17:50 | -36.99814 | 174.35166 | 6657 ft | 266 kts | 75° |
| 2026-05-04 17:50 | -36.99426 | 174.37426 | 6531 ft | 266 kts | 75° |
| 2026-05-04 17:50 | -36.99037 | 174.39689 | 6407 ft | 265 kts | 76° |
| 2026-05-04 17:50 | -36.98649 | 174.41941 | 6283 ft | 265 kts | 76° |
| 2026-05-04 17:51 | -36.98261 | 174.44196 | 6148 ft | 265 kts | 75° |
| 2026-05-04 17:51 | -36.97734 | 174.46395 | 6022 ft | 263 kts | 68° |
| 2026-05-04 17:51 | -36.97125 | 174.48554 | 5996 ft | 264 kts | 69° |
| 2026-05-04 17:51 | -36.96528 | 174.50727 | 5998 ft | 264 kts | 69° |
| 2026-05-04 17:52 | -36.95936 | 174.52898 | 5999 ft | 264 kts | 69° |
| 2026-05-04 17:52 | -36.95349 | 174.55048 | 5998 ft | 264 kts | 69° |
| 2026-05-04 17:52 | -36.94755 | 174.57222 | 5998 ft | 264 kts | 70° |
| 2026-05-04 17:52 | -36.94191 | 174.59413 | 6000 ft | 265 kts | 70° |
| 2026-05-04 17:53 | -36.93633 | 174.61604 | 6001 ft | 264 kts | 70° |
| 2026-05-04 17:53 | -36.93077 | 174.63786 | 5999 ft | 263 kts | 70° |
| 2026-05-04 17:53 | -36.92523 | 174.65973 | 6000 ft | 264 kts | 70° |
| 2026-05-04 17:53 | -36.91969 | 174.68157 | 5998 ft | 261 kts | 70° |
| 2026-05-04 17:54 | -36.91427 | 174.70315 | 6000 ft | 260 kts | 70° |
| 2026-05-04 17:54 | -36.90885 | 174.72474 | 6000 ft | 260 kts | 70° |
| 2026-05-04 17:54 | -36.90348 | 174.74615 | 6000 ft | 261 kts | 70° |
| 2026-05-04 17:54 | -36.89806 | 174.76777 | 6001 ft | 261 kts | 70° |
| 2026-05-04 17:55 | -36.89263 | 174.78940 | 6000 ft | 261 kts | 70° |
| 2026-05-04 17:55 | -36.88720 | 174.81098 | 5982 ft | 260 kts | 70° |
| 2026-05-04 17:55 | -36.88182 | 174.83248 | 5749 ft | 256 kts | 70° |
| 2026-05-04 17:55 | -36.87655 | 174.85346 | 5494 ft | 250 kts | 70° |
| 2026-05-04 17:56 | -36.87139 | 174.87374 | 5276 ft | 239 kts | 70° |
| 2026-05-04 17:56 | -36.86654 | 174.89328 | 4998 ft | 233 kts | 74° |
| 2026-05-04 17:56 | -36.86382 | 174.91308 | 4735 ft | 229 kts | 80° |
| 2026-05-04 17:56 | -36.86177 | 174.93261 | 4480 ft | 224 kts | 80° |
| 2026-05-04 17:57 | -36.85971 | 174.95177 | 4226 ft | 221 kts | 80° |
| 2026-05-04 17:57 | -36.85769 | 174.97059 | 4014 ft | 215 kts | 80° |
| 2026-05-04 17:57 | -36.85576 | 174.98856 | 3994 ft | 202 kts | 80° |
| 2026-05-04 17:57 | -36.85403 | 175.00516 | 4010 ft | 187 kts | 80° |
| 2026-05-04 17:58 | -36.85239 | 175.02117 | 3999 ft | 186 kts | 80° |
| 2026-05-04 17:58 | -36.85070 | 175.03735 | 3997 ft | 188 kts | 80° |
| 2026-05-04 17:58 | -36.84936 | 175.05358 | 3989 ft | 189 kts | 91° |
| 2026-05-04 17:58 | -36.85431 | 175.06875 | 4002 ft | 196 kts | 128° |
| 2026-05-04 17:59 | -36.86587 | 175.07824 | 4006 ft | 202 kts | 150° |
| 2026-05-04 17:59 | -36.87850 | 175.08587 | 3996 ft | 201 kts | 150° |
| 2026-05-04 17:59 | -36.90371 | 175.10092 | 3876 ft | 199 kts | 155° |
| 2026-05-04 18:00 | -36.91733 | 175.10187 | 3652 ft | 201 kts | 197° |
| 2026-05-04 18:00 | -36.92777 | 175.09081 | 3504 ft | 200 kts | 243° |
| 2026-05-04 18:00 | -36.93292 | 175.07467 | 3500 ft | 199 kts | 254° |
| 2026-05-04 18:00 | -36.93709 | 175.05816 | 3502 ft | 198 kts | 253° |
| 2026-05-04 18:01 | -36.94149 | 175.04228 | 3505 ft | 190 kts | 253° |
| 2026-05-04 18:01 | -36.94576 | 175.02675 | 3502 ft | 189 kts | 253° |
| 2026-05-04 18:01 | -36.95003 | 175.01125 | 3457 ft | 189 kts | 253° |
| 2026-05-04 18:02 | -36.95855 | 174.98040 | 2954 ft | 189 kts | 253° |
| 2026-05-04 18:02 | -36.96289 | 174.96467 | 2691 ft | 189 kts | 253° |
| 2026-05-04 18:02 | -36.96713 | 174.94932 | 2439 ft | 189 kts | 252° |
| 2026-05-04 18:02 | -36.97135 | 174.93404 | 2176 ft | 183 kts | 252° |
| 2026-05-04 18:03 | -36.97545 | 174.91912 | 1925 ft | 180 kts | 252° |
| 2026-05-04 18:03 | -36.97944 | 174.90466 | 1709 ft | 168 kts | 251° |
| 2026-05-04 18:03 | -36.98307 | 174.89150 | 1468 ft | 154 kts | 251° |
| 2026-05-04 18:03 | -36.98650 | 174.87905 | 1280 ft | 149 kts | 250° |
| 2026-05-04 18:04 | -36.98986 | 174.86687 | 1073 ft | 147 kts | 249° |
| 2026-05-04 18:04 | -36.99316 | 174.85487 | 863 ft | 144 kts | 249° |
| 2026-05-04 18:04 | -36.99955 | 174.83167 | 485 ft | 138 kts | 250° |
| 2026-05-04 18:05 | -37.00260 | 174.82047 | 303 ft | 137 kts | 250° |
| 2026-05-04 18:05 | -37.00568 | 174.80926 | 117 ft | 136 kts | 249° |
| 2026-05-04 18:05 | -37.00868 | 174.79846 | 31 ft | 116 kts | 250° |
| 2026-05-04 18:05 | -37.01074 | 174.79097 | 30 ft | 63 kts | 251° |
| 2026-05-04 18:06 | -37.01242 | 174.78437 | 31 ft | 25 kts | 262° |
| 2026-05-04 18:06 | -37.01243 | 174.78250 | 31 ft | 5 kts | 282° |
| 2026-05-04 18:06 | -37.01232 | 174.78190 | 31 ft | 10 kts | 283° |
| 2026-05-04 18:07 | -37.01200 | 174.78100 | 31 ft | 12 kts | 333° |
| 2026-05-04 18:07 | -37.01148 | 174.78128 | 31 ft | 9 kts | 71° |
| 2026-05-04 18:07 | -37.01125 | 174.78227 | 31 ft | 14 kts | 72° |
| 2026-05-04 18:07 | -37.01055 | 174.78285 | 31 ft | 14 kts | 354° |
| 2026-05-04 18:08 | -37.00962 | 174.78221 | 31 ft | 17 kts | 304° |
| 2026-05-04 18:08 | -37.00912 | 174.78113 | 31 ft | 13 kts | 300° |
| 2026-05-04 18:08 | -37.00841 | 174.78029 | 31 ft | 16 kts | 341° |
| 2026-05-04 18:08 | -37.00740 | 174.78014 | 31 ft | 12 kts | 14° |
| 2026-05-04 18:09 | -37.00583 | 174.78034 | 30 ft | 2 kts | 341° |
| 2026-05-04 18:09 | -37.00512 | 174.78002 | 30 ft | 4 kts | 343° |
| 2026-05-04 18:10 | -37.00486 | 174.77992 | 30 ft | 0 kts | 342° |
| 2026-05-04 18:10 | -37.00485 | 174.77991 | 30 ft | 0 kts | 342° |